sensor_id;sensor_type;location;lat;lon;timestamp;pressure;altitude;pressure_sealevel;temperature;humidity
79372;BME280;68914;51.262;6.802;2023-06-26T00:00:34;100967.47;;;26.12;45.92
79372;BME280;68914;51.262;6.802;2023-06-26T00:01:35;100970.00;;;26.22;45.50
79372;BME280;68914;51.262;6.802;2023-06-26T00:02:35;100967.19;;;26.28;45.38
79372;BME280;68914;51.262;6.802;2023-06-26T00:03:36;100969.78;;;26.33;45.29
79372;BME280;68914;51.262;6.802;2023-06-26T00:04:37;100970.09;;;26.31;45.22
79372;BME280;68914;51.262;6.802;2023-06-26T00:05:38;100965.34;;;26.09;45.89
79372;BME280;68914;51.262;6.802;2023-06-26T00:06:39;100965.66;;;26.08;46.00
79372;BME280;68914;51.262;6.802;2023-06-26T00:07:39;100970.56;;;26.19;45.94
79372;BME280;68914;51.262;6.802;2023-06-26T00:08:40;100964.28;;;25.78;46.23
79372;BME280;68914;51.262;6.802;2023-06-26T00:09:41;100969.56;;;26.02;46.13
79372;BME280;68914;51.262;6.802;2023-06-26T00:10:41;100963.16;;;26.11;45.59
79372;BME280;68914;51.262;6.802;2023-06-26T00:11:42;100965.66;;;26.08;45.88
79372;BME280;68914;51.262;6.802;2023-06-26T00:12:43;100958.88;;;26.24;45.42
79372;BME280;68914;51.262;6.802;2023-06-26T00:13:43;100965.97;;;26.06;45.85
79372;BME280;68914;51.262;6.802;2023-06-26T00:14:44;100963.06;;;26.03;45.97
79372;BME280;68914;51.262;6.802;2023-06-26T00:15:45;100965.31;;;25.82;46.55
79372;BME280;68914;51.262;6.802;2023-06-26T00:16:45;100963.63;;;25.99;46.23
79372;BME280;68914;51.262;6.802;2023-06-26T00:17:46;100968.34;;;26.08;45.73
79372;BME280;68914;51.262;6.802;2023-06-26T00:18:47;100960.47;;;26.11;45.41
79372;BME280;68914;51.262;6.802;2023-06-26T00:19:48;100966.25;;;26.05;45.79
79372;BME280;68914;51.262;6.802;2023-06-26T00:20:49;100960.84;;;26.05;45.87
79372;BME280;68914;51.262;6.802;2023-06-26T00:21:50;100968.13;;;25.90;46.04
79372;BME280;68914;51.262;6.802;2023-06-26T00:22:51;100964.53;;;25.95;46.03
79372;BME280;68914;51.262;6.802;2023-06-26T00:23:51;100960.03;;;25.90;45.95
79372;BME280;68914;51.262;6.802;2023-06-26T00:24:52;100961.59;;;25.59;46.60
79372;BME280;68914;51.262;6.802;2023-06-26T00:25:53;100964.44;;;25.67;46.69
79372;BME280;68914;51.262;6.802;2023-06-26T00:26:54;100973.25;;;25.73;46.59
79372;BME280;68914;51.262;6.802;2023-06-26T00:27:54;100960.50;;;25.92;46.20
79372;BME280;68914;51.262;6.802;2023-06-26T00:28:55;100963.41;;;25.82;46.21
79372;BME280;68914;51.262;6.802;2023-06-26T00:29:56;100968.34;;;25.94;46.07
79372;BME280;68914;51.262;6.802;2023-06-26T00:30:58;100962.16;;;26.07;45.53
79372;BME280;68914;51.262;6.802;2023-06-26T00:31:58;100965.59;;;25.61;46.31
79372;BME280;68914;51.262;6.802;2023-06-26T00:33:00;100969.41;;;25.60;46.73
79372;BME280;68914;51.262;6.802;2023-06-26T00:34:01;100959.41;;;25.61;46.74
79372;BME280;68914;51.262;6.802;2023-06-26T00:35:02;100955.75;;;25.70;46.37
79372;BME280;68914;51.262;6.802;2023-06-26T00:36:03;100949.78;;;25.55;46.51
79372;BME280;68914;51.262;6.802;2023-06-26T00:37:05;100949.44;;;25.75;46.20
79372;BME280;68914;51.262;6.802;2023-06-26T00:38:05;100965.91;;;25.92;45.79
79372;BME280;68914;51.262;6.802;2023-06-26T00:39:06;100958.50;;;25.84;45.93
79372;BME280;68914;51.262;6.802;2023-06-26T00:40:09;100960.50;;;25.79;46.04
79372;BME280;68914;51.262;6.802;2023-06-26T00:41:10;100950.97;;;25.81;46.35
79372;BME280;68914;51.262;6.802;2023-06-26T00:42:12;100958.50;;;25.65;46.49
79372;BME280;68914;51.262;6.802;2023-06-26T00:43:14;100958.28;;;25.81;46.39
79372;BME280;68914;51.262;6.802;2023-06-26T00:44:15;100956.25;;;25.54;46.53
79372;BME280;68914;51.262;6.802;2023-06-26T00:45:16;100962.44;;;25.73;46.22
79372;BME280;68914;51.262;6.802;2023-06-26T00:46:17;100960.34;;;25.70;46.37
79372;BME280;68914;51.262;6.802;2023-06-26T00:47:18;100958.50;;;25.84;46.08
79372;BME280;68914;51.262;6.802;2023-06-26T00:48:19;100956.13;;;25.64;46.23
79372;BME280;68914;51.262;6.802;2023-06-26T00:49:19;100953.84;;;25.71;46.35
79372;BME280;68914;51.262;6.802;2023-06-26T00:50:20;100959.84;;;25.49;46.53
79372;BME280;68914;51.262;6.802;2023-06-26T00:51:21;100961.16;;;25.51;46.54
79372;BME280;68914;51.262;6.802;2023-06-26T00:52:22;100957.88;;;25.55;46.68
79372;BME280;68914;51.262;6.802;2023-06-26T00:53:25;100953.03;;;25.19;47.20
79372;BME280;68914;51.262;6.802;2023-06-26T00:54:26;100960.25;;;25.42;47.01
79372;BME280;68914;51.262;6.802;2023-06-26T00:55:27;100957.38;;;25.52;46.61
79372;BME280;68914;51.262;6.802;2023-06-26T00:56:28;100956.88;;;25.50;46.99
79372;BME280;68914;51.262;6.802;2023-06-26T00:57:30;100954.53;;;25.63;46.31
79372;BME280;68914;51.262;6.802;2023-06-26T00:58:31;100962.75;;;25.52;46.60
79372;BME280;68914;51.262;6.802;2023-06-26T00:59:31;100957.31;;;25.39;46.80
79372;BME280;68914;51.262;6.802;2023-06-26T01:00:32;100954.63;;;25.39;46.66
79372;BME280;68914;51.262;6.802;2023-06-26T01:01:33;100952.97;;;25.57;46.33
79372;BME280;68914;51.262;6.802;2023-06-26T01:02:34;100949.19;;;25.58;46.53
79372;BME280;68914;51.262;6.802;2023-06-26T01:03:35;100956.88;;;25.32;47.04
79372;BME280;68914;51.262;6.802;2023-06-26T01:04:38;100956.34;;;25.48;46.54
79372;BME280;68914;51.262;6.802;2023-06-26T01:05:47;100952.72;;;25.39;46.91
79372;BME280;68914;51.262;6.802;2023-06-26T01:06:52;100957.69;;;25.13;47.60
79372;BME280;68914;51.262;6.802;2023-06-26T01:07:53;100947.84;;;25.22;47.28
79372;BME280;68914;51.262;6.802;2023-06-26T01:08:54;100942.41;;;25.41;46.85
79372;BME280;68914;51.262;6.802;2023-06-26T01:09:55;100951.13;;;25.38;47.10
79372;BME280;68914;51.262;6.802;2023-06-26T01:10:55;100940.69;;;25.32;46.88
79372;BME280;68914;51.262;6.802;2023-06-26T01:11:56;100945.72;;;25.38;46.88
79372;BME280;68914;51.262;6.802;2023-06-26T01:12:57;100941.50;;;25.32;46.85
79372;BME280;68914;51.262;6.802;2023-06-26T01:13:59;100940.00;;;25.02;47.44
79372;BME280;68914;51.262;6.802;2023-06-26T01:15:02;100942.28;;;25.14;47.40
79372;BME280;68914;51.262;6.802;2023-06-26T01:16:04;100946.88;;;25.32;46.76
79372;BME280;68914;51.262;6.802;2023-06-26T01:17:05;100939.75;;;25.22;46.89
79372;BME280;68914;51.262;6.802;2023-06-26T01:18:06;100939.81;;;25.17;47.20
79372;BME280;68914;51.262;6.802;2023-06-26T01:19:15;100942.00;;;25.34;46.78
79372;BME280;68914;51.262;6.802;2023-06-26T01:20:26;100934.81;;;25.11;47.38
79372;BME280;68914;51.262;6.802;2023-06-26T01:21:28;100940.53;;;25.04;47.00
79372;BME280;68914;51.262;6.802;2023-06-26T01:22:47;100938.28;;;25.11;47.33
79372;BME280;68914;51.262;6.802;2023-06-26T01:26:39;100934.13;;;25.19;46.86
79372;BME280;68914;51.262;6.802;2023-06-26T01:27:41;100932.50;;;25.18;46.74
79372;BME280;68914;51.262;6.802;2023-06-26T01:28:43;100934.81;;;25.06;47.23
79372;BME280;68914;51.262;6.802;2023-06-26T01:29:45;100932.38;;;25.09;47.31
79372;BME280;68914;51.262;6.802;2023-06-26T01:30:47;100936.94;;;25.09;47.17
79372;BME280;68914;51.262;6.802;2023-06-26T01:31:49;100937.19;;;25.31;46.44
79372;BME280;68914;51.262;6.802;2023-06-26T01:32:50;100933.19;;;25.10;46.95
79372;BME280;68914;51.262;6.802;2023-06-26T01:33:51;100931.69;;;24.98;47.06
79372;BME280;68914;51.262;6.802;2023-06-26T01:34:55;100937.06;;;24.98;47.24
79372;BME280;68914;51.262;6.802;2023-06-26T01:35:55;100927.91;;;24.99;47.33
79372;BME280;68914;51.262;6.802;2023-06-26T01:36:56;100920.75;;;24.90;47.65
79372;BME280;68914;51.262;6.802;2023-06-26T01:39:18;100931.09;;;25.01;47.26
79372;BME280;68914;51.262;6.802;2023-06-26T01:40:19;100930.59;;;24.81;47.49
79372;BME280;68914;51.262;6.802;2023-06-26T01:41:20;100928.75;;;24.76;47.63
79372;BME280;68914;51.262;6.802;2023-06-26T01:42:21;100927.16;;;24.75;47.65
79372;BME280;68914;51.262;6.802;2023-06-26T01:43:29;100930.34;;;24.77;47.55
79372;BME280;68914;51.262;6.802;2023-06-26T01:44:35;100932.13;;;24.87;47.15
79372;BME280;68914;51.262;6.802;2023-06-26T01:45:41;100924.69;;;24.97;47.08
79372;BME280;68914;51.262;6.802;2023-06-26T01:47:04;100923.13;;;24.72;47.39
79372;BME280;68914;51.262;6.802;2023-06-26T01:48:06;100926.19;;;24.66;47.64
79372;BME280;68914;51.262;6.802;2023-06-26T01:50:26;100924.09;;;24.82;47.67
79372;BME280;68914;51.262;6.802;2023-06-26T01:51:40;100930.88;;;24.98;47.22
79372;BME280;68914;51.262;6.802;2023-06-26T01:53:46;100929.50;;;24.82;47.46
79372;BME280;68914;51.262;6.802;2023-06-26T01:55:15;100925.63;;;24.88;47.28
79372;BME280;68914;51.262;6.802;2023-06-26T01:56:16;100932.56;;;24.94;46.75
79372;BME280;68914;51.262;6.802;2023-06-26T01:57:17;100934.69;;;24.97;46.73
79372;BME280;68914;51.262;6.802;2023-06-26T01:58:21;100933.63;;;24.74;47.49
79372;BME280;68914;51.262;6.802;2023-06-26T01:59:23;100932.41;;;24.85;47.21
79372;BME280;68914;51.262;6.802;2023-06-26T02:00:26;100933.44;;;24.89;47.51
79372;BME280;68914;51.262;6.802;2023-06-26T02:01:27;100929.91;;;24.70;47.55
79372;BME280;68914;51.262;6.802;2023-06-26T02:02:31;100926.97;;;24.47;48.30
79372;BME280;68914;51.262;6.802;2023-06-26T02:03:32;100936.94;;;24.71;47.71
79372;BME280;68914;51.262;6.802;2023-06-26T02:04:34;100939.47;;;24.81;47.59
79372;BME280;68914;51.262;6.802;2023-06-26T02:05:35;100938.38;;;24.82;47.56
79372;BME280;68914;51.262;6.802;2023-06-26T02:06:35;100940.59;;;24.99;47.12
79372;BME280;68914;51.262;6.802;2023-06-26T02:07:36;100938.91;;;24.84;47.14
79372;BME280;68914;51.262;6.802;2023-06-26T02:08:37;100938.81;;;24.89;47.18
79372;BME280;68914;51.262;6.802;2023-06-26T02:09:37;100944.38;;;24.98;46.90
79372;BME280;68914;51.262;6.802;2023-06-26T02:10:38;100945.47;;;24.97;46.97
79372;BME280;68914;51.262;6.802;2023-06-26T02:11:39;100947.88;;;24.80;47.08
79372;BME280;68914;51.262;6.802;2023-06-26T02:12:39;100945.44;;;24.78;47.42
79372;BME280;68914;51.262;6.802;2023-06-26T02:13:40;100946.69;;;24.67;47.63
79372;BME280;68914;51.262;6.802;2023-06-26T02:14:41;100949.09;;;24.44;48.15
79372;BME280;68914;51.262;6.802;2023-06-26T02:15:41;100950.34;;;24.52;47.99
79372;BME280;68914;51.262;6.802;2023-06-26T02:16:42;100954.69;;;24.72;47.34
79372;BME280;68914;51.262;6.802;2023-06-26T02:17:43;100948.75;;;24.51;47.94
79372;BME280;68914;51.262;6.802;2023-06-26T02:18:48;100961.13;;;24.76;47.72
79372;BME280;68914;51.262;6.802;2023-06-26T02:19:49;100950.94;;;24.92;47.07
79372;BME280;68914;51.262;6.802;2023-06-26T02:20:49;100953.84;;;24.76;47.16
79372;BME280;68914;51.262;6.802;2023-06-26T02:21:50;100951.84;;;24.82;47.10
79372;BME280;68914;51.262;6.802;2023-06-26T02:22:51;100962.72;;;24.77;47.25
79372;BME280;68914;51.262;6.802;2023-06-26T02:23:52;100955.16;;;24.79;47.37
79372;BME280;68914;51.262;6.802;2023-06-26T02:24:53;100956.69;;;24.85;47.40
79372;BME280;68914;51.262;6.802;2023-06-26T02:25:53;100959.53;;;24.75;47.69
79372;BME280;68914;51.262;6.802;2023-06-26T02:26:54;100957.66;;;24.70;47.50
79372;BME280;68914;51.262;6.802;2023-06-26T02:27:55;100946.75;;;24.81;47.42
79372;BME280;68914;51.262;6.802;2023-06-26T02:28:55;100952.53;;;24.50;47.94
79372;BME280;68914;51.262;6.802;2023-06-26T02:29:56;100951.34;;;24.32;48.50
79372;BME280;68914;51.262;6.802;2023-06-26T02:30:56;100952.06;;;24.43;48.44
79372;BME280;68914;51.262;6.802;2023-06-26T02:31:58;100949.97;;;24.40;48.65
79372;BME280;68914;51.262;6.802;2023-06-26T02:32:59;100953.31;;;24.50;48.09
79372;BME280;68914;51.262;6.802;2023-06-26T02:34:00;100953.44;;;24.64;47.82
79372;BME280;68914;51.262;6.802;2023-06-26T02:35:01;100958.53;;;24.42;48.38
79372;BME280;68914;51.262;6.802;2023-06-26T02:36:02;100961.06;;;24.57;48.24
79372;BME280;68914;51.262;6.802;2023-06-26T02:37:02;100962.16;;;24.56;48.35
79372;BME280;68914;51.262;6.802;2023-06-26T02:38:04;100971.00;;;24.62;48.03
79372;BME280;68914;51.262;6.802;2023-06-26T02:39:05;100972.72;;;24.52;48.65
79372;BME280;68914;51.262;6.802;2023-06-26T02:40:07;100975.41;;;24.52;48.47
79372;BME280;68914;51.262;6.802;2023-06-26T02:41:10;100972.72;;;24.52;48.20
79372;BME280;68914;51.262;6.802;2023-06-26T02:42:11;100975.13;;;24.54;48.35
79372;BME280;68914;51.262;6.802;2023-06-26T02:43:12;100978.44;;;24.46;48.74
79372;BME280;68914;51.262;6.802;2023-06-26T02:44:13;100968.81;;;24.40;48.66
79372;BME280;68914;51.262;6.802;2023-06-26T02:45:14;100973.47;;;24.29;49.10
79372;BME280;68914;51.262;6.802;2023-06-26T02:46:15;100979.03;;;24.14;49.34
79372;BME280;68914;51.262;6.802;2023-06-26T02:47:15;100977.03;;;24.24;49.21
79372;BME280;68914;51.262;6.802;2023-06-26T02:48:18;100977.19;;;24.38;49.07
79372;BME280;68914;51.262;6.802;2023-06-26T02:49:18;100979.59;;;24.64;48.57
79372;BME280;68914;51.262;6.802;2023-06-26T02:50:19;100985.28;;;24.62;48.60
79372;BME280;68914;51.262;6.802;2023-06-26T02:51:41;100979.72;;;24.53;48.54
79372;BME280;68914;51.262;6.802;2023-06-26T02:52:50;100985.34;;;24.57;48.54
79372;BME280;68914;51.262;6.802;2023-06-26T02:53:54;100985.22;;;24.43;48.86
79372;BME280;68914;51.262;6.802;2023-06-26T02:54:55;100971.34;;;24.26;49.49
79372;BME280;68914;51.262;6.802;2023-06-26T02:55:55;100981.25;;;24.36;49.01
79372;BME280;68914;51.262;6.802;2023-06-26T02:56:56;100981.38;;;24.20;49.43
79372;BME280;68914;51.262;6.802;2023-06-26T02:58:01;100991.66;;;24.47;48.80
79372;BME280;68914;51.262;6.802;2023-06-26T02:59:02;100988.44;;;24.69;48.21
79372;BME280;68914;51.262;6.802;2023-06-26T03:00:03;100997.72;;;24.82;48.05
79372;BME280;68914;51.262;6.802;2023-06-26T03:01:08;100992.28;;;24.87;47.84
79372;BME280;68914;51.262;6.802;2023-06-26T03:02:09;100989.28;;;24.89;47.66
79372;BME280;68914;51.262;6.802;2023-06-26T03:03:20;100996.19;;;24.76;48.15
79372;BME280;68914;51.262;6.802;2023-06-26T03:04:21;101001.66;;;24.71;48.16
79372;BME280;68914;51.262;6.802;2023-06-26T03:05:22;100994.34;;;24.71;48.03
79372;BME280;68914;51.262;6.802;2023-06-26T03:06:24;101001.91;;;24.69;48.08
79372;BME280;68914;51.262;6.802;2023-06-26T03:07:24;101004.28;;;24.76;47.88
79372;BME280;68914;51.262;6.802;2023-06-26T03:08:26;101006.91;;;24.81;47.89
79372;BME280;68914;51.262;6.802;2023-06-26T03:09:27;101001.66;;;24.71;48.23
79372;BME280;68914;51.262;6.802;2023-06-26T03:10:27;100998.09;;;24.51;48.69
79372;BME280;68914;51.262;6.802;2023-06-26T03:11:28;101011.44;;;24.62;48.08
79372;BME280;68914;51.262;6.802;2023-06-26T03:12:29;101015.28;;;24.56;48.39
79372;BME280;68914;51.262;6.802;2023-06-26T03:13:30;101013.63;;;24.60;48.38
79372;BME280;68914;51.262;6.802;2023-06-26T03:14:30;101016.78;;;24.67;48.13
79372;BME280;68914;51.262;6.802;2023-06-26T03:15:32;101011.31;;;24.48;48.45
79372;BME280;68914;51.262;6.802;2023-06-26T03:16:32;101015.78;;;24.58;48.66
79372;BME280;68914;51.262;6.802;2023-06-26T03:17:33;101023.63;;;24.59;48.69
79372;BME280;68914;51.262;6.802;2023-06-26T03:18:38;101009.66;;;24.52;48.85
79372;BME280;68914;51.262;6.802;2023-06-26T03:19:39;101015.19;;;24.37;49.07
79372;BME280;68914;51.262;6.802;2023-06-26T03:20:55;101011.59;;;24.46;48.95
79372;BME280;68914;51.262;6.802;2023-06-26T03:21:56;101013.72;;;24.20;49.88
79372;BME280;68914;51.262;6.802;2023-06-26T03:22:56;101009.00;;;24.36;49.78
79372;BME280;68914;51.262;6.802;2023-06-26T03:23:58;101012.47;;;24.37;49.73
79372;BME280;68914;51.262;6.802;2023-06-26T03:24:58;101012.19;;;24.67;48.95
79372;BME280;68914;51.262;6.802;2023-06-26T03:25:59;101012.28;;;24.57;49.18
79372;BME280;68914;51.262;6.802;2023-06-26T03:27:03;101018.94;;;24.65;49.14
79372;BME280;68914;51.262;6.802;2023-06-26T03:28:04;101014.28;;;24.70;48.83
79372;BME280;68914;51.262;6.802;2023-06-26T03:29:05;101016.59;;;24.82;48.77
79372;BME280;68914;51.262;6.802;2023-06-26T03:30:07;101016.94;;;24.51;49.67
79372;BME280;68914;51.262;6.802;2023-06-26T03:31:10;101014.94;;;24.62;49.71
79372;BME280;68914;51.262;6.802;2023-06-26T03:32:11;101019.03;;;24.60;49.30
79372;BME280;68914;51.262;6.802;2023-06-26T03:33:12;101018.38;;;24.68;49.45
79372;BME280;68914;51.262;6.802;2023-06-26T03:34:12;101008.88;;;24.75;49.08
79372;BME280;68914;51.262;6.802;2023-06-26T03:35:13;101016.81;;;24.86;49.27
79372;BME280;68914;51.262;6.802;2023-06-26T03:36:14;101014.50;;;24.79;49.37
79372;BME280;68914;51.262;6.802;2023-06-26T03:37:15;101018.63;;;24.71;49.58
79372;BME280;68914;51.262;6.802;2023-06-26T03:38:16;101023.78;;;24.68;49.83
79372;BME280;68914;51.262;6.802;2023-06-26T03:39:18;101023.25;;;24.66;49.94
79372;BME280;68914;51.262;6.802;2023-06-26T03:40:19;101024.09;;;24.85;49.79
79372;BME280;68914;51.262;6.802;2023-06-26T03:41:19;101023.25;;;24.90;49.30
79372;BME280;68914;51.262;6.802;2023-06-26T03:42:20;101030.13;;;24.77;49.76
79372;BME280;68914;51.262;6.802;2023-06-26T03:43:21;101026.63;;;24.76;49.54
79372;BME280;68914;51.262;6.802;2023-06-26T03:44:56;101027.44;;;24.77;49.90
79372;BME280;68914;51.262;6.802;2023-06-26T03:45:57;101027.44;;;24.77;49.95
79372;BME280;68914;51.262;6.802;2023-06-26T03:47:00;101027.19;;;24.97;49.59
79372;BME280;68914;51.262;6.802;2023-06-26T03:48:00;101023.28;;;25.09;49.38
79372;BME280;68914;51.262;6.802;2023-06-26T03:49:01;101032.47;;;25.08;49.59
79372;BME280;68914;51.262;6.802;2023-06-26T03:50:01;101029.16;;;25.16;49.38
79372;BME280;68914;51.262;6.802;2023-06-26T03:51:02;101032.88;;;25.20;49.51
79372;BME280;68914;51.262;6.802;2023-06-26T03:52:04;101033.53;;;25.12;49.24
79372;BME280;68914;51.262;6.802;2023-06-26T03:53:04;101031.56;;;24.93;49.97
79372;BME280;68914;51.262;6.802;2023-06-26T03:54:05;101034.94;;;24.27;51.88
79372;BME280;68914;51.262;6.802;2023-06-26T03:55:06;101037.50;;;24.42;51.46
79372;BME280;68914;51.262;6.802;2023-06-26T03:56:07;101030.75;;;24.45;51.43
79372;BME280;68914;51.262;6.802;2023-06-26T03:57:07;101038.94;;;24.64;50.81
79372;BME280;68914;51.262;6.802;2023-06-26T03:58:08;101035.38;;;24.68;51.01
79372;BME280;68914;51.262;6.802;2023-06-26T03:59:10;101044.31;;;24.88;50.22
79372;BME280;68914;51.262;6.802;2023-06-26T04:00:11;101040.75;;;24.68;51.01
79372;BME280;68914;51.262;6.802;2023-06-26T04:01:15;101037.19;;;24.73;51.05
79372;BME280;68914;51.262;6.802;2023-06-26T04:02:17;101031.72;;;24.54;51.09
79372;BME280;68914;51.262;6.802;2023-06-26T04:03:19;101039.16;;;24.67;50.79
79372;BME280;68914;51.262;6.802;2023-06-26T04:04:21;101043.75;;;24.91;50.41
79372;BME280;68914;51.262;6.802;2023-06-26T04:05:22;101046.38;;;24.72;50.97
79372;BME280;68914;51.262;6.802;2023-06-26T04:06:23;101044.97;;;24.98;49.96
79372;BME280;68914;51.262;6.802;2023-06-26T04:07:23;101048.38;;;24.85;50.11
79372;BME280;68914;51.262;6.802;2023-06-26T04:08:25;101050.09;;;25.00;49.59
79372;BME280;68914;51.262;6.802;2023-06-26T04:09:26;101053.44;;;24.92;50.08
79372;BME280;68914;51.262;6.802;2023-06-26T04:10:28;101051.44;;;25.02;49.57
79372;BME280;68914;51.262;6.802;2023-06-26T04:11:29;101048.31;;;25.14;49.39
79372;BME280;68914;51.262;6.802;2023-06-26T04:12:29;101050.44;;;24.69;50.53
79372;BME280;68914;51.262;6.802;2023-06-26T04:13:30;101056.53;;;24.56;51.09
79372;BME280;68914;51.262;6.802;2023-06-26T04:14:31;101057.25;;;24.62;51.06
79372;BME280;68914;51.262;6.802;2023-06-26T04:15:31;101062.09;;;24.65;50.89
79372;BME280;68914;51.262;6.802;2023-06-26T04:16:32;101057.50;;;24.89;50.27
79372;BME280;68914;51.262;6.802;2023-06-26T04:17:32;101065.03;;;24.92;50.22
79372;BME280;68914;51.262;6.802;2023-06-26T04:18:33;101065.09;;;24.63;50.96
79372;BME280;68914;51.262;6.802;2023-06-26T04:19:34;101062.09;;;24.89;50.65
79372;BME280;68914;51.262;6.802;2023-06-26T04:20:39;101057.09;;;24.77;50.53
79372;BME280;68914;51.262;6.802;2023-06-26T04:21:40;101065.25;;;24.72;50.96
79372;BME280;68914;51.262;6.802;2023-06-26T04:22:41;101064.00;;;24.88;50.20
79372;BME280;68914;51.262;6.802;2023-06-26T04:23:42;101066.69;;;24.88;50.45
79372;BME280;68914;51.262;6.802;2023-06-26T04:24:42;101065.72;;;25.03;50.32
79372;BME280;68914;51.262;6.802;2023-06-26T04:25:46;101065.19;;;24.77;50.75
79372;BME280;68914;51.262;6.802;2023-06-26T04:26:47;101073.03;;;25.02;50.15
79372;BME280;68914;51.262;6.802;2023-06-26T04:27:48;101062.00;;;24.99;49.78
79372;BME280;68914;51.262;6.802;2023-06-26T04:28:48;101070.81;;;24.57;50.50
79372;BME280;68914;51.262;6.802;2023-06-26T04:29:49;101067.41;;;24.75;50.06
79372;BME280;68914;51.262;6.802;2023-06-26T04:30:50;101072.41;;;25.06;48.96
79372;BME280;68914;51.262;6.802;2023-06-26T04:31:51;101070.03;;;25.04;48.89
79372;BME280;68914;51.262;6.802;2023-06-26T04:32:52;101073.75;;;25.32;48.38
79372;BME280;68914;51.262;6.802;2023-06-26T04:33:52;101073.38;;;25.58;47.90
79372;BME280;68914;51.262;6.802;2023-06-26T04:34:55;101079.03;;;26.32;46.55
79372;BME280;68914;51.262;6.802;2023-06-26T04:35:55;101077.22;;;26.87;44.72
79372;BME280;68914;51.262;6.802;2023-06-26T04:36:56;101075.31;;;27.02;44.37
79372;BME280;68914;51.262;6.802;2023-06-26T04:37:57;101074.22;;;26.89;44.30
79372;BME280;68914;51.262;6.802;2023-06-26T04:38:58;101070.31;;;26.95;44.24
79372;BME280;68914;51.262;6.802;2023-06-26T04:39:59;101073.22;;;27.26;43.68
79372;BME280;68914;51.262;6.802;2023-06-26T04:41:00;101072.44;;;27.62;43.07
79372;BME280;68914;51.262;6.802;2023-06-26T04:42:01;101075.56;;;27.55;42.59
79372;BME280;68914;51.262;6.802;2023-06-26T04:43:01;101076.13;;;27.80;42.42
79372;BME280;68914;51.262;6.802;2023-06-26T04:44:02;101082.34;;;27.80;42.35
79372;BME280;68914;51.262;6.802;2023-06-26T04:45:03;101084.13;;;27.35;43.37
79372;BME280;68914;51.262;6.802;2023-06-26T04:46:05;101085.47;;;27.74;42.33
79372;BME280;68914;51.262;6.802;2023-06-26T04:47:06;101076.66;;;27.90;41.84
79372;BME280;68914;51.262;6.802;2023-06-26T04:48:06;101079.72;;;27.39;42.67
79372;BME280;68914;51.262;6.802;2023-06-26T04:49:10;101078.72;;;27.07;43.83
79372;BME280;68914;51.262;6.802;2023-06-26T04:50:12;101072.91;;;27.00;43.54
79372;BME280;68914;51.262;6.802;2023-06-26T04:51:12;101074.13;;;26.34;45.33
79372;BME280;68914;51.262;6.802;2023-06-26T04:52:13;101083.78;;;26.21;45.93
79372;BME280;68914;51.262;6.802;2023-06-26T04:53:14;101075.66;;;25.88;46.72
79372;BME280;68914;51.262;6.802;2023-06-26T04:54:14;101080.03;;;26.03;46.43
79372;BME280;68914;51.262;6.802;2023-06-26T04:55:15;101079.97;;;25.51;47.40
79372;BME280;68914;51.262;6.802;2023-06-26T04:56:16;101077.13;;;25.43;47.95
79372;BME280;68914;51.262;6.802;2023-06-26T04:57:16;101082.91;;;25.93;47.00
79372;BME280;68914;51.262;6.802;2023-06-26T04:58:19;101083.69;;;25.56;47.53
79372;BME280;68914;51.262;6.802;2023-06-26T04:59:20;101086.03;;;25.81;47.17
79372;BME280;68914;51.262;6.802;2023-06-26T05:00:20;101084.81;;;26.25;45.97
79372;BME280;68914;51.262;6.802;2023-06-26T05:01:21;101090.41;;;26.15;46.07
79372;BME280;68914;51.262;6.802;2023-06-26T05:02:21;101082.75;;;25.84;47.07
79372;BME280;68914;51.262;6.802;2023-06-26T05:03:22;101080.63;;;25.62;47.37
79372;BME280;68914;51.262;6.802;2023-06-26T05:04:23;101087.69;;;25.39;47.72
79372;BME280;68914;51.262;6.802;2023-06-26T05:05:23;101084.38;;;25.66;46.97
79372;BME280;68914;51.262;6.802;2023-06-26T05:06:24;101086.97;;;25.52;47.79
79372;BME280;68914;51.262;6.802;2023-06-26T05:07:25;101086.94;;;25.15;48.59
79372;BME280;68914;51.262;6.802;2023-06-26T05:08:26;101088.03;;;25.09;48.69
79372;BME280;68914;51.262;6.802;2023-06-26T05:09:27;101094.75;;;25.35;48.25
79372;BME280;68914;51.262;6.802;2023-06-26T05:10:27;101099.06;;;25.36;48.24
79372;BME280;68914;51.262;6.802;2023-06-26T05:11:28;101091.84;;;25.08;48.36
79372;BME280;68914;51.262;6.802;2023-06-26T05:12:29;101089.44;;;25.49;47.82
79372;BME280;68914;51.262;6.802;2023-06-26T05:13:29;101095.06;;;25.10;48.50
79372;BME280;68914;51.262;6.802;2023-06-26T05:14:30;101100.41;;;25.15;47.85
79372;BME280;68914;51.262;6.802;2023-06-26T05:15:30;101097.91;;;24.94;48.60
79372;BME280;68914;51.262;6.802;2023-06-26T05:16:31;101102.22;;;24.71;48.96
79372;BME280;68914;51.262;6.802;2023-06-26T05:17:32;101103.50;;;25.03;48.26
79372;BME280;68914;51.262;6.802;2023-06-26T05:18:32;101102.53;;;24.65;49.14
79372;BME280;68914;51.262;6.802;2023-06-26T05:19:33;101100.47;;;25.10;48.49
79372;BME280;68914;51.262;6.802;2023-06-26T05:20:34;101102.09;;;25.11;47.97
79372;BME280;68914;51.262;6.802;2023-06-26T05:21:36;101107.09;;;24.93;48.08
79372;BME280;68914;51.262;6.802;2023-06-26T05:22:37;101103.53;;;24.74;48.58
79372;BME280;68914;51.262;6.802;2023-06-26T05:23:39;101111.53;;;24.55;49.19
79372;BME280;68914;51.262;6.802;2023-06-26T05:24:40;101117.53;;;24.76;49.00
79372;BME280;68914;51.262;6.802;2023-06-26T05:25:42;101110.72;;;25.08;48.11
79372;BME280;68914;51.262;6.802;2023-06-26T05:26:43;101118.03;;;25.31;48.18
79372;BME280;68914;51.262;6.802;2023-06-26T05:27:44;101117.13;;;25.17;47.93
79372;BME280;68914;51.262;6.802;2023-06-26T05:28:45;101120.19;;;25.05;48.25
79372;BME280;68914;51.262;6.802;2023-06-26T05:29:49;101120.38;;;25.14;48.33